sensor_id;sensor_type;location;lat;lon;timestamp;P1;durP1;ratioP1;P2;durP2;ratioP2
13816;SDS011;6979;52.116;5.286;2023-05-13T00:01:10;5.00;;;4.70;;
13816;SDS011;6979;52.116;5.286;2023-05-13T00:03:37;6.40;;;5.70;;
13816;SDS011;6979;52.116;5.286;2023-05-13T00:06:04;6.10;;;5.70;;
13816;SDS011;6979;52.116;5.286;2023-05-13T00:08:31;5.50;;;5.10;;
13816;SDS011;6979;52.116;5.286;2023-05-13T00:11:00;5.90;;;5.50;;
13816;SDS011;6979;52.116;5.286;2023-05-13T00:13:27;5.13;;;4.73;;
13816;SDS011;6979;52.116;5.286;2023-05-13T00:15:54;5.43;;;4.93;;
13816;SDS011;6979;52.116;5.286;2023-05-13T00:18:20;5.87;;;5.37;;
13816;SDS011;6979;52.116;5.286;2023-05-13T00:20:47;6.23;;;5.63;;
13816;SDS011;6979;52.116;5.286;2023-05-13T00:23:14;5.63;;;5.23;;
13816;SDS011;6979;52.116;5.286;2023-05-13T00:25:41;5.50;;;5.10;;
13816;SDS011;6979;52.116;5.286;2023-05-13T00:28:10;5.47;;;5.17;;
13816;SDS011;6979;52.116;5.286;2023-05-13T00:30:39;6.40;;;6.00;;
13816;SDS011;6979;52.116;5.286;2023-05-13T00:33:06;6.00;;;5.60;;
13816;SDS011;6979;52.116;5.286;2023-05-13T00:35:33;5.77;;;5.37;;
13816;SDS011;6979;52.116;5.286;2023-05-13T00:37:59;5.40;;;4.90;;
13816;SDS011;6979;52.116;5.286;2023-05-13T00:40:26;5.87;;;5.47;;
13816;SDS011;6979;52.116;5.286;2023-05-13T00:42:53;5.23;;;4.80;;
13816;SDS011;6979;52.116;5.286;2023-05-13T00:45:22;6.47;;;6.03;;
13816;SDS011;6979;52.116;5.286;2023-05-13T00:47:48;6.57;;;6.17;;
13816;SDS011;6979;52.116;5.286;2023-05-13T00:50:16;6.43;;;5.93;;
13816;SDS011;6979;52.116;5.286;2023-05-13T00:52:43;6.97;;;6.37;;
13816;SDS011;6979;52.116;5.286;2023-05-13T00:55:10;6.13;;;5.73;;
13816;SDS011;6979;52.116;5.286;2023-05-13T00:57:37;6.83;;;6.33;;
13816;SDS011;6979;52.116;5.286;2023-05-13T01:00:05;6.53;;;6.13;;
13816;SDS011;6979;52.116;5.286;2023-05-13T01:02:43;6.40;;;6.00;;
13816;SDS011;6979;52.116;5.286;2023-05-13T01:05:18;6.03;;;5.63;;
13816;SDS011;6979;52.116;5.286;2023-05-13T01:07:54;6.37;;;5.77;;
13816;SDS011;6979;52.116;5.286;2023-05-13T01:10:32;6.27;;;5.87;;
13816;SDS011;6979;52.116;5.286;2023-05-13T01:13:06;5.80;;;5.43;;
13816;SDS011;6979;52.116;5.286;2023-05-13T01:15:37;6.80;;;6.10;;
13816;SDS011;6979;52.116;5.286;2023-05-13T01:18:09;6.50;;;5.90;;
13816;SDS011;6979;52.116;5.286;2023-05-13T01:20:40;5.83;;;5.43;;
13816;SDS011;6979;52.116;5.286;2023-05-13T01:23:09;6.33;;;5.83;;
13816;SDS011;6979;52.116;5.286;2023-05-13T01:25:36;5.43;;;5.03;;
13816;SDS011;6979;52.116;5.286;2023-05-13T01:28:04;6.00;;;5.60;;
13816;SDS011;6979;52.116;5.286;2023-05-13T01:30:32;6.40;;;6.00;;
13816;SDS011;6979;52.116;5.286;2023-05-13T01:32:59;6.47;;;5.90;;
13816;SDS011;6979;52.116;5.286;2023-05-13T01:35:28;6.20;;;5.70;;
13816;SDS011;6979;52.116;5.286;2023-05-13T01:37:57;6.13;;;5.63;;
13816;SDS011;6979;52.116;5.286;2023-05-13T01:40:27;6.33;;;5.80;;
13816;SDS011;6979;52.116;5.286;2023-05-13T01:42:54;6.10;;;5.70;;
13816;SDS011;6979;52.116;5.286;2023-05-13T01:45:21;6.40;;;5.87;;
13816;SDS011;6979;52.116;5.286;2023-05-13T01:47:48;6.13;;;5.50;;
13816;SDS011;6979;52.116;5.286;2023-05-13T01:50:15;6.23;;;5.77;;
13816;SDS011;6979;52.116;5.286;2023-05-13T01:52:42;6.90;;;6.40;;
13816;SDS011;6979;52.116;5.286;2023-05-13T01:55:09;6.10;;;5.60;;
13816;SDS011;6979;52.116;5.286;2023-05-13T01:57:37;6.07;;;5.60;;
13816;SDS011;6979;52.116;5.286;2023-05-13T02:00:04;6.40;;;5.90;;
13816;SDS011;6979;52.116;5.286;2023-05-13T02:02:39;5.67;;;5.37;;
13816;SDS011;6979;52.116;5.286;2023-05-13T02:05:08;6.27;;;5.77;;
13816;SDS011;6979;52.116;5.286;2023-05-13T02:07:36;7.07;;;5.53;;
13816;SDS011;6979;52.116;5.286;2023-05-13T02:10:03;5.87;;;5.40;;
13816;SDS011;6979;52.116;5.286;2023-05-13T02:12:31;6.23;;;5.70;;
13816;SDS011;6979;52.116;5.286;2023-05-13T02:14:59;6.47;;;5.97;;
13816;SDS011;6979;52.116;5.286;2023-05-13T02:17:29;5.93;;;5.53;;
13816;SDS011;6979;52.116;5.286;2023-05-13T02:19:55;5.83;;;5.33;;
13816;SDS011;6979;52.116;5.286;2023-05-13T02:22:22;6.17;;;5.77;;
13816;SDS011;6979;52.116;5.286;2023-05-13T02:24:49;7.47;;;6.77;;
13816;SDS011;6979;52.116;5.286;2023-05-13T02:27:16;6.57;;;6.10;;
13816;SDS011;6979;52.116;5.286;2023-05-13T02:29:44;6.43;;;5.93;;
13816;SDS011;6979;52.116;5.286;2023-05-13T02:32:13;7.10;;;6.50;;
13816;SDS011;6979;52.116;5.286;2023-05-13T02:34:40;6.80;;;6.30;;
13816;SDS011;6979;52.116;5.286;2023-05-13T02:37:07;6.90;;;6.30;;
13816;SDS011;6979;52.116;5.286;2023-05-13T02:39:41;6.37;;;5.97;;
13816;SDS011;6979;52.116;5.286;2023-05-13T02:42:08;7.50;;;6.87;;
13816;SDS011;6979;52.116;5.286;2023-05-13T02:44:35;7.07;;;6.57;;
13816;SDS011;6979;52.116;5.286;2023-05-13T02:47:03;7.30;;;6.60;;
13816;SDS011;6979;52.116;5.286;2023-05-13T02:49:31;6.83;;;6.40;;
13816;SDS011;6979;52.116;5.286;2023-05-13T02:51:58;7.30;;;6.90;;
13816;SDS011;6979;52.116;5.286;2023-05-13T02:54:31;8.30;;;7.60;;
13816;SDS011;6979;52.116;5.286;2023-05-13T02:56:58;7.27;;;6.77;;
13816;SDS011;6979;52.116;5.286;2023-05-13T02:59:25;9.00;;;7.93;;
13816;SDS011;6979;52.116;5.286;2023-05-13T03:01:52;8.30;;;7.70;;
13816;SDS011;6979;52.116;5.286;2023-05-13T03:04:19;8.27;;;7.67;;
13816;SDS011;6979;52.116;5.286;2023-05-13T03:06:48;8.40;;;7.80;;
13816;SDS011;6979;52.116;5.286;2023-05-13T03:09:17;8.37;;;7.67;;
13816;SDS011;6979;52.116;5.286;2023-05-13T03:11:43;7.50;;;6.90;;
13816;SDS011;6979;52.116;5.286;2023-05-13T03:14:10;8.43;;;7.83;;
13816;SDS011;6979;52.116;5.286;2023-05-13T03:16:37;8.57;;;7.87;;
13816;SDS011;6979;52.116;5.286;2023-05-13T03:19:04;8.27;;;7.57;;
13816;SDS011;6979;52.116;5.286;2023-05-13T03:21:31;8.13;;;7.63;;
13816;SDS011;6979;52.116;5.286;2023-05-13T03:23:59;8.43;;;7.83;;
13816;SDS011;6979;52.116;5.286;2023-05-13T03:26:26;8.33;;;7.67;;
13816;SDS011;6979;52.116;5.286;2023-05-13T03:28:55;8.97;;;8.20;;
13816;SDS011;6979;52.116;5.286;2023-05-13T03:31:22;7.70;;;7.10;;
13816;SDS011;6979;52.116;5.286;2023-05-13T03:33:49;9.13;;;8.43;;
13816;SDS011;6979;52.116;5.286;2023-05-13T03:36:16;9.50;;;8.80;;
13816;SDS011;6979;52.116;5.286;2023-05-13T03:38:46;9.87;;;9.07;;
13816;SDS011;6979;52.116;5.286;2023-05-13T03:41:14;8.87;;;8.17;;
13816;SDS011;6979;52.116;5.286;2023-05-13T03:43:42;9.50;;;8.80;;
13816;SDS011;6979;52.116;5.286;2023-05-13T03:46:12;9.20;;;8.40;;
13816;SDS011;6979;52.116;5.286;2023-05-13T03:48:39;9.47;;;8.77;;
13816;SDS011;6979;52.116;5.286;2023-05-13T03:51:06;9.47;;;8.77;;
13816;SDS011;6979;52.116;5.286;2023-05-13T03:53:33;9.47;;;8.77;;
13816;SDS011;6979;52.116;5.286;2023-05-13T03:56:01;9.10;;;8.20;;
13816;SDS011;6979;52.116;5.286;2023-05-13T03:58:29;9.40;;;8.70;;
13816;SDS011;6979;52.116;5.286;2023-05-13T04:00:56;9.70;;;9.00;;
13816;SDS011;6979;52.116;5.286;2023-05-13T04:03:23;10.77;;;9.87;;
13816;SDS011;6979;52.116;5.286;2023-05-13T04:05:50;10.47;;;9.50;;
13816;SDS011;6979;52.116;5.286;2023-05-13T04:08:17;9.67;;;8.97;;
13816;SDS011;6979;52.116;5.286;2023-05-13T04:10:44;10.20;;;9.43;;
13816;SDS011;6979;52.116;5.286;2023-05-13T04:13:10;10.13;;;9.23;;
13816;SDS011;6979;52.116;5.286;2023-05-13T04:15:39;10.17;;;9.37;;
13816;SDS011;6979;52.116;5.286;2023-05-13T04:18:05;10.37;;;9.60;;
13816;SDS011;6979;52.116;5.286;2023-05-13T04:20:33;10.23;;;9.43;;
13816;SDS011;6979;52.116;5.286;2023-05-13T04:23:00;10.33;;;9.53;;
13816;SDS011;6979;52.116;5.286;2023-05-13T04:25:27;9.67;;;9.00;;
13816;SDS011;6979;52.116;5.286;2023-05-13T04:27:54;10.00;;;9.30;;
13816;SDS011;6979;52.116;5.286;2023-05-13T04:30:34;11.47;;;10.67;;
13816;SDS011;6979;52.116;5.286;2023-05-13T04:33:02;10.37;;;9.47;;
13816;SDS011;6979;52.116;5.286;2023-05-13T04:35:31;13.43;;;10.40;;
13816;SDS011;6979;52.116;5.286;2023-05-13T04:38:00;11.17;;;10.37;;
13816;SDS011;6979;52.116;5.286;2023-05-13T04:40:27;10.67;;;9.87;;
13816;SDS011;6979;52.116;5.286;2023-05-13T04:42:58;11.27;;;10.47;;
13816;SDS011;6979;52.116;5.286;2023-05-13T04:45:32;10.20;;;9.40;;
13816;SDS011;6979;52.116;5.286;2023-05-13T04:48:04;10.10;;;9.30;;
13816;SDS011;6979;52.116;5.286;2023-05-13T04:50:31;10.87;;;9.97;;
13816;SDS011;6979;52.116;5.286;2023-05-13T04:52:59;10.83;;;10.03;;
13816;SDS011;6979;52.116;5.286;2023-05-13T04:55:26;9.60;;;8.90;;
13816;SDS011;6979;52.116;5.286;2023-05-13T04:57:53;10.30;;;9.60;;
13816;SDS011;6979;52.116;5.286;2023-05-13T05:00:20;10.83;;;9.73;;
13816;SDS011;6979;52.116;5.286;2023-05-13T05:02:49;10.70;;;9.90;;
13816;SDS011;6979;52.116;5.286;2023-05-13T05:05:17;10.90;;;9.93;;
13816;SDS011;6979;52.116;5.286;2023-05-13T05:07:45;10.20;;;9.50;;
13816;SDS011;6979;52.116;5.286;2023-05-13T05:10:14;11.20;;;10.27;;
13816;SDS011;6979;52.116;5.286;2023-05-13T05:12:47;10.27;;;9.47;;
13816;SDS011;6979;52.116;5.286;2023-05-13T05:15:14;10.70;;;9.80;;
13816;SDS011;6979;52.116;5.286;2023-05-13T05:17:44;9.47;;;8.77;;
13816;SDS011;6979;52.116;5.286;2023-05-13T05:20:11;10.00;;;9.27;;
13816;SDS011;6979;52.116;5.286;2023-05-13T05:22:39;10.70;;;9.80;;
13816;SDS011;6979;52.116;5.286;2023-05-13T05:25:08;10.63;;;9.83;;
13816;SDS011;6979;52.116;5.286;2023-05-13T05:27:35;10.30;;;9.53;;
13816;SDS011;6979;52.116;5.286;2023-05-13T05:30:05;12.13;;;10.90;;
13816;SDS011;6979;52.116;5.286;2023-05-13T05:32:34;11.13;;;10.03;;
13816;SDS011;6979;52.116;5.286;2023-05-13T05:35:03;10.43;;;9.63;;
13816;SDS011;6979;52.116;5.286;2023-05-13T05:37:32;11.60;;;10.73;;
13816;SDS011;6979;52.116;5.286;2023-05-13T05:40:00;11.27;;;10.40;;
13816;SDS011;6979;52.116;5.286;2023-05-13T05:42:28;11.10;;;10.23;;
13816;SDS011;6979;52.116;5.286;2023-05-13T05:44:55;11.33;;;10.53;;
13816;SDS011;6979;52.116;5.286;2023-05-13T05:47:21;10.83;;;9.83;;
13816;SDS011;6979;52.116;5.286;2023-05-13T05:49:48;10.87;;;10.03;;
13816;SDS011;6979;52.116;5.286;2023-05-13T05:52:17;10.53;;;9.73;;
13816;SDS011;6979;52.116;5.286;2023-05-13T05:54:44;11.07;;;10.13;;
13816;SDS011;6979;52.116;5.286;2023-05-13T05:57:13;11.57;;;10.50;;
13816;SDS011;6979;52.116;5.286;2023-05-13T05:59:40;11.93;;;10.83;;
13816;SDS011;6979;52.116;5.286;2023-05-13T06:02:06;11.37;;;10.40;;
13816;SDS011;6979;52.116;5.286;2023-05-13T06:04:40;11.93;;;11.00;;
13816;SDS011;6979;52.116;5.286;2023-05-13T06:07:07;10.93;;;10.07;;
13816;SDS011;6979;52.116;5.286;2023-05-13T06:09:34;10.80;;;10.00;;
13816;SDS011;6979;52.116;5.286;2023-05-13T06:12:01;12.17;;;11.27;;
13816;SDS011;6979;52.116;5.286;2023-05-13T06:14:32;11.80;;;10.87;;
13816;SDS011;6979;52.116;5.286;2023-05-13T06:16:59;13.87;;;11.00;;
13816;SDS011;6979;52.116;5.286;2023-05-13T06:19:26;10.13;;;9.43;;
13816;SDS011;6979;52.116;5.286;2023-05-13T06:21:52;10.73;;;9.70;;
13816;SDS011;6979;52.116;5.286;2023-05-13T06:24:19;11.90;;;10.90;;
13816;SDS011;6979;52.116;5.286;2023-05-13T06:26:46;10.93;;;10.23;;
13816;SDS011;6979;52.116;5.286;2023-05-13T06:29:15;11.13;;;10.23;;
13816;SDS011;6979;52.116;5.286;2023-05-13T06:31:43;11.40;;;10.50;;
13816;SDS011;6979;52.116;5.286;2023-05-13T06:34:10;11.53;;;10.73;;
13816;SDS011;6979;52.116;5.286;2023-05-13T06:36:41;11.93;;;10.93;;
13816;SDS011;6979;52.116;5.286;2023-05-13T06:39:08;11.60;;;10.60;;
13816;SDS011;6979;52.116;5.286;2023-05-13T06:41:37;10.10;;;9.40;;
13816;SDS011;6979;52.116;5.286;2023-05-13T06:44:08;10.73;;;9.93;;
13816;SDS011;6979;52.116;5.286;2023-05-13T06:46:38;11.90;;;10.80;;
13816;SDS011;6979;52.116;5.286;2023-05-13T06:49:06;10.60;;;9.83;;
13816;SDS011;6979;52.116;5.286;2023-05-13T06:51:33;10.77;;;9.97;;
13816;SDS011;6979;52.116;5.286;2023-05-13T06:54:00;10.37;;;9.57;;
13816;SDS011;6979;52.116;5.286;2023-05-13T06:56:27;10.53;;;9.80;;
13816;SDS011;6979;52.116;5.286;2023-05-13T06:58:55;11.23;;;10.33;;
13816;SDS011;6979;52.116;5.286;2023-05-13T07:01:22;9.93;;;9.23;;
13816;SDS011;6979;52.116;5.286;2023-05-13T07:03:49;10.50;;;9.80;;
13816;SDS011;6979;52.116;5.286;2023-05-13T07:06:17;10.80;;;9.90;;
13816;SDS011;6979;52.116;5.286;2023-05-13T07:08:44;10.07;;;9.27;;
13816;SDS011;6979;52.116;5.286;2023-05-13T07:11:11;10.53;;;9.70;;
13816;SDS011;6979;52.116;5.286;2023-05-13T07:13:38;10.40;;;9.70;;
13816;SDS011;6979;52.116;5.286;2023-05-13T07:16:04;10.30;;;9.50;;
13816;SDS011;6979;52.116;5.286;2023-05-13T07:18:31;10.27;;;9.40;;
13816;SDS011;6979;52.116;5.286;2023-05-13T07:20:58;9.80;;;9.10;;
13816;SDS011;6979;52.116;5.286;2023-05-13T07:23:26;9.37;;;8.67;;
13816;SDS011;6979;52.116;5.286;2023-05-13T07:25:53;9.20;;;8.53;;
13816;SDS011;6979;52.116;5.286;2023-05-13T07:28:20;9.73;;;8.90;;
13816;SDS011;6979;52.116;5.286;2023-05-13T07:30:47;10.00;;;8.97;;
13816;SDS011;6979;52.116;5.286;2023-05-13T07:33:14;9.17;;;8.40;;
13816;SDS011;6979;52.116;5.286;2023-05-13T07:35:41;9.83;;;9.07;;
13816;SDS011;6979;52.116;5.286;2023-05-13T07:38:08;10.00;;;9.20;;
13816;SDS011;6979;52.116;5.286;2023-05-13T07:40:37;11.17;;;10.27;;
13816;SDS011;6979;52.116;5.286;2023-05-13T07:43:04;10.17;;;9.37;;
13816;SDS011;6979;52.116;5.286;2023-05-13T07:45:32;10.53;;;9.83;;
13816;SDS011;6979;52.116;5.286;2023-05-13T07:47:59;10.10;;;9.10;;
13816;SDS011;6979;52.116;5.286;2023-05-13T07:50:26;10.93;;;10.07;;
13816;SDS011;6979;52.116;5.286;2023-05-13T07:52:53;10.70;;;9.90;;
13816;SDS011;6979;52.116;5.286;2023-05-13T07:55:20;9.53;;;8.77;;
13816;SDS011;6979;52.116;5.286;2023-05-13T07:57:48;10.10;;;9.30;;
13816;SDS011;6979;52.116;5.286;2023-05-13T08:00:15;9.83;;;9.03;;
13816;SDS011;6979;52.116;5.286;2023-05-13T08:02:43;9.77;;;9.17;;
13816;SDS011;6979;52.116;5.286;2023-05-13T08:05:09;9.53;;;8.77;;
13816;SDS011;6979;52.116;5.286;2023-05-13T08:07:36;10.47;;;9.67;;
13816;SDS011;6979;52.116;5.286;2023-05-13T08:10:04;9.60;;;8.90;;
13816;SDS011;6979;52.116;5.286;2023-05-13T08:12:33;9.37;;;8.63;;
13816;SDS011;6979;52.116;5.286;2023-05-13T08:15:01;10.10;;;9.10;;
13816;SDS011;6979;52.116;5.286;2023-05-13T08:17:28;9.63;;;8.97;;
13816;SDS011;6979;52.116;5.286;2023-05-13T08:19:56;9.63;;;8.97;;
13816;SDS011;6979;52.116;5.286;2023-05-13T08:22:22;8.97;;;8.20;;
13816;SDS011;6979;52.116;5.286;2023-05-13T08:24:53;9.23;;;8.53;;
13816;SDS011;6979;52.116;5.286;2023-05-13T08:27:19;9.87;;;8.97;;
13816;SDS011;6979;52.116;5.286;2023-05-13T08:29:46;8.60;;;7.90;;
13816;SDS011;6979;52.116;5.286;2023-05-13T08:32:14;8.57;;;7.87;;
13816;SDS011;6979;52.116;5.286;2023-05-13T08:34:42;9.67;;;8.90;;
13816;SDS011;6979;52.116;5.286;2023-05-13T08:37:09;8.63;;;8.03;;
13816;SDS011;6979;52.116;5.286;2023-05-13T08:39:36;9.13;;;8.43;;
13816;SDS011;6979;52.116;5.286;2023-05-13T08:42:03;9.77;;;9.07;;
13816;SDS011;6979;52.116;5.286;2023-05-13T08:44:31;10.07;;;9.37;;
13816;SDS011;6979;52.116;5.286;2023-05-13T08:47:15;9.23;;;8.43;;
13816;SDS011;6979;52.116;5.286;2023-05-13T08:49:51;8.90;;;8.20;;
13816;SDS011;6979;52.116;5.286;2023-05-13T08:52:18;9.70;;;9.00;;
13816;SDS011;6979;52.116;5.286;2023-05-13T08:54:47;9.63;;;8.90;;
13816;SDS011;6979;52.116;5.286;2023-05-13T08:57:14;9.10;;;8.50;;
13816;SDS011;6979;52.116;5.286;2023-05-13T08:59:42;8.00;;;7.40;;
13816;SDS011;6979;52.116;5.286;2023-05-13T09:02:08;7.83;;;7.33;;
13816;SDS011;6979;52.116;5.286;2023-05-13T09:04:37;7.73;;;7.13;;
13816;SDS011;6979;52.116;5.286;2023-05-13T09:07:06;7.87;;;7.37;;
13816;SDS011;6979;52.116;5.286;2023-05-13T09:09:33;7.40;;;6.80;;
13816;SDS011;6979;52.116;5.286;2023-05-13T09:12:01;7.27;;;6.77;;
13816;SDS011;6979;52.116;5.286;2023-05-13T09:14:28;8.27;;;7.57;;
13816;SDS011;6979;52.116;5.286;2023-05-13T09:16:56;7.30;;;6.70;;
13816;SDS011;6979;52.116;5.286;2023-05-13T09:19:23;7.43;;;6.87;;
13816;SDS011;6979;52.116;5.286;2023-05-13T09:21:52;7.30;;;6.63;;
13816;SDS011;6979;52.116;5.286;2023-05-13T09:24:19;7.37;;;6.87;;
13816;SDS011;6979;52.116;5.286;2023-05-13T09:26:47;6.90;;;6.20;;
13816;SDS011;6979;52.116;5.286;2023-05-13T09:29:15;6.60;;;6.20;;
13816;SDS011;6979;52.116;5.286;2023-05-13T09:31:44;7.47;;;6.77;;
13816;SDS011;6979;52.116;5.286;2023-05-13T09:34:12;7.37;;;6.77;;
13816;SDS011;6979;52.116;5.286;2023-05-13T09:36:39;6.87;;;6.37;;
13816;SDS011;6979;52.116;5.286;2023-05-13T09:39:08;6.57;;;6.07;;
13816;SDS011;6979;52.116;5.286;2023-05-13T09:41:37;5.87;;;5.40;;
13816;SDS011;6979;52.116;5.286;2023-05-13T09:44:04;6.70;;;6.30;;
13816;SDS011;6979;52.116;5.286;2023-05-13T09:46:30;6.83;;;6.30;;
13816;SDS011;6979;52.116;5.286;2023-05-13T09:48:58;6.60;;;6.10;;
13816;SDS011;6979;52.116;5.286;2023-05-13T09:51:26;6.97;;;6.47;;
13816;SDS011;6979;52.116;5.286;2023-05-13T09:53:55;6.13;;;5.73;;
13816;SDS011;6979;52.116;5.286;2023-05-13T09:56:31;6.57;;;6.13;;
13816;SDS011;6979;52.116;5.286;2023-05-13T09:58:59;5.20;;;4.90;;
13816;SDS011;6979;52.116;5.286;2023-05-13T10:01:26;5.63;;;5.23;;
13816;SDS011;6979;52.116;5.286;2023-05-13T10:03:54;5.57;;;5.17;;
13816;SDS011;6979;52.116;5.286;2023-05-13T10:06:24;5.90;;;5.50;;
13816;SDS011;6979;52.116;5.286;2023-05-13T10:08:53;7.07;;;6.53;;
13816;SDS011;6979;52.116;5.286;2023-05-13T10:11:23;5.50;;;5.10;;
13816;SDS011;6979;52.116;5.286;2023-05-13T10:13:54;5.97;;;5.47;;
13816;SDS011;6979;52.116;5.286;2023-05-13T10:16:26;5.90;;;5.50;;
13816;SDS011;6979;52.116;5.286;2023-05-13T10:18:54;5.80;;;5.40;;
13816;SDS011;6979;52.116;5.286;2023-05-13T10:21:22;5.90;;;5.50;;
13816;SDS011;6979;52.116;5.286;2023-05-13T10:23:49;6.13;;;5.50;;
13816;SDS011;6979;52.116;5.286;2023-05-13T10:26:17;6.07;;;5.73;;
13816;SDS011;6979;52.116;5.286;2023-05-13T10:28:45;5.50;;;5.07;;
13816;SDS011;6979;52.116;5.286;2023-05-13T10:31:14;6.07;;;5.67;;
13816;SDS011;6979;52.116;5.286;2023-05-13T10:33:41;6.10;;;5.60;;
13816;SDS011;6979;52.116;5.286;2023-05-13T10:36:12;6.67;;;6.17;;
13816;SDS011;6979;52.116;5.286;2023-05-13T10:39:05;4.83;;;4.37;;
13816;SDS011;6979;52.116;5.286;2023-05-13T10:42:18;5.60;;;5.10;;
13816;SDS011;6979;52.116;5.286;2023-05-13T10:45:13;4.87;;;4.57;;
13816;SDS011;6979;52.116;5.286;2023-05-13T10:47:47;5.27;;;4.87;;
13816;SDS011;6979;52.116;5.286;2023-05-13T10:50:22;5.37;;;5.00;;
13816;SDS011;6979;52.116;5.286;2023-05-13T10:52:56;5.87;;;5.47;;
13816;SDS011;6979;52.116;5.286;2023-05-13T10:55:25;5.60;;;5.20;;
13816;SDS011;6979;52.116;5.286;2023-05-13T10:58:08;6.37;;;5.87;;
13816;SDS011;6979;52.116;5.286;2023-05-13T11:00:36;6.07;;;5.67;;
13816;SDS011;6979;52.116;5.286;2023-05-13T11:03:09;5.50;;;5.10;;
13816;SDS011;6979;52.116;5.286;2023-05-13T11:05:40;6.00;;;5.47;;
13816;SDS011;6979;52.116;5.286;2023-05-13T11:08:11;5.60;;;5.20;;
13816;SDS011;6979;52.116;5.286;2023-05-13T11:10:57;5.67;;;5.10;;
13816;SDS011;6979;52.116;5.286;2023-05-13T11:13:27;5.83;;;5.43;;
13816;SDS011;6979;52.116;5.286;2023-05-13T11:16:02;5.00;;;4.70;;
13816;SDS011;6979;52.116;5.286;2023-05-13T11:18:33;5.77;;;5.27;;
13816;SDS011;6979;52.116;5.286;2023-05-13T11:21:03;5.93;;;5.53;;
13816;SDS011;6979;52.116;5.286;2023-05-13T11:23:32;5.47;;;5.07;;
13816;SDS011;6979;52.116;5.286;2023-05-13T11:26:09;5.73;;;5.33;;
13816;SDS011;6979;52.116;5.286;2023-05-13T11:28:58;4.90;;;4.50;;
13816;SDS011;6979;52.116;5.286;2023-05-13T11:31:41;5.83;;;5.37;;
13816;SDS011;6979;52.116;5.286;2023-05-13T11:34:14;5.97;;;5.57;;
13816;SDS011;6979;52.116;5.286;2023-05-13T11:36:42;6.63;;;5.97;;
13816;SDS011;6979;52.116;5.286;2023-05-13T11:39:13;5.80;;;5.40;;
13816;SDS011;6979;52.116;5.286;2023-05-13T11:41:42;6.77;;;6.30;;
13816;SDS011;6979;52.116;5.286;2023-05-13T11:44:10;5.73;;;5.33;;
13816;SDS011;6979;52.116;5.286;2023-05-13T11:46:47;6.23;;;5.20;;
13816;SDS011;6979;52.116;5.286;2023-05-13T11:49:45;5.87;;;5.37;;
13816;SDS011;6979;52.116;5.286;2023-05-13T11:52:16;5.67;;;5.33;;
13816;SDS011;6979;52.116;5.286;2023-05-13T11:54:46;5.03;;;4.73;;
13816;SDS011;6979;52.116;5.286;2023-05-13T11:57:23;5.50;;;5.10;;
13816;SDS011;6979;52.116;5.286;2023-05-13T11:59:51;4.87;;;4.47;;
13816;SDS011;6979;52.116;5.286;2023-05-13T12:02:20;5.10;;;4.60;;
13816;SDS011;6979;52.116;5.286;2023-05-13T12:04:49;5.27;;;4.97;;
13816;SDS011;6979;52.116;5.286;2023-05-13T12:07:20;5.27;;;4.87;;
13816;SDS011;6979;52.116;5.286;2023-05-13T12:09:48;6.30;;;5.63;;
13816;SDS011;6979;52.116;5.286;2023-05-13T12:12:15;5.30;;;5.00;;
13816;SDS011;6979;52.116;5.286;2023-05-13T12:14:42;6.17;;;4.97;;
13816;SDS011;6979;52.116;5.286;2023-05-13T12:17:11;5.30;;;4.90;;
13816;SDS011;6979;52.116;5.286;2023-05-13T12:19:38;5.17;;;4.73;;
13816;SDS011;6979;52.116;5.286;2023-05-13T12:22:06;5.13;;;4.73;;
13816;SDS011;6979;52.116;5.286;2023-05-13T12:24:33;5.97;;;5.57;;
13816;SDS011;6979;52.116;5.286;2023-05-13T12:27:03;5.70;;;5.40;;
13816;SDS011;6979;52.116;5.286;2023-05-13T12:29:38;5.87;;;5.47;;
13816;SDS011;6979;52.116;5.286;2023-05-13T12:32:06;6.27;;;5.87;;
13816;SDS011;6979;52.116;5.286;2023-05-13T12:34:34;6.57;;;5.27;;
13816;SDS011;6979;52.116;5.286;2023-05-13T12:37:12;4.67;;;4.37;;
13816;SDS011;6979;52.116;5.286;2023-05-13T12:39:39;4.90;;;4.47;;
13816;SDS011;6979;52.116;5.286;2023-05-13T12:42:12;4.50;;;4.20;;
13816;SDS011;6979;52.116;5.286;2023-05-13T12:44:40;4.47;;;4.17;;
13816;SDS011;6979;52.116;5.286;2023-05-13T12:47:08;4.23;;;3.93;;
13816;SDS011;6979;52.116;5.286;2023-05-13T12:49:49;4.13;;;3.93;;
13816;SDS011;6979;52.116;5.286;2023-05-13T12:52:18;4.23;;;4.03;;
13816;SDS011;6979;52.116;5.286;2023-05-13T12:54:45;5.77;;;3.90;;
13816;SDS011;6979;52.116;5.286;2023-05-13T12:57:14;5.17;;;3.63;;
13816;SDS011;6979;52.116;5.286;2023-05-13T12:59:41;4.23;;;3.83;;
13816;SDS011;6979;52.116;5.286;2023-05-13T13:02:09;6.23;;;4.77;;
13816;SDS011;6979;52.116;5.286;2023-05-13T13:04:36;4.67;;;4.37;;
13816;SDS011;6979;52.116;5.286;2023-05-13T13:07:03;4.53;;;4.33;;
13816;SDS011;6979;52.116;5.286;2023-05-13T13:09:34;4.53;;;4.23;;
13816;SDS011;6979;52.116;5.286;2023-05-13T13:12:01;4.37;;;4.03;;
13816;SDS011;6979;52.116;5.286;2023-05-13T13:14:28;4.50;;;4.23;;
13816;SDS011;6979;52.116;5.286;2023-05-13T13:16:55;4.33;;;4.03;;
13816;SDS011;6979;52.116;5.286;2023-05-13T13:19:22;4.73;;;4.33;;
13816;SDS011;6979;52.116;5.286;2023-05-13T13:21:49;4.77;;;4.50;;
13816;SDS011;6979;52.116;5.286;2023-05-13T13:24:16;4.37;;;4.07;;
13816;SDS011;6979;52.116;5.286;2023-05-13T13:26:44;4.27;;;4.03;;
13816;SDS011;6979;52.116;5.286;2023-05-13T13:29:11;4.30;;;4.00;;
13816;SDS011;6979;52.116;5.286;2023-05-13T13:31:38;4.57;;;4.27;;
13816;SDS011;6979;52.116;5.286;2023-05-13T13:34:05;6.30;;;4.60;;
13816;SDS011;6979;52.116;5.286;2023-05-13T13:36:34;4.53;;;4.23;;
13816;SDS011;6979;52.116;5.286;2023-05-13T13:39:01;4.73;;;4.13;;
13816;SDS011;6979;52.116;5.286;2023-05-13T13:41:28;4.37;;;4.07;;
13816;SDS011;6979;52.116;5.286;2023-05-13T13:43:59;4.73;;;4.37;;
13816;SDS011;6979;52.116;5.286;2023-05-13T13:46:26;4.80;;;4.50;;
13816;SDS011;6979;52.116;5.286;2023-05-13T13:48:53;4.63;;;4.23;;
13816;SDS011;6979;52.116;5.286;2023-05-13T13:51:19;5.07;;;3.97;;
13816;SDS011;6979;52.116;5.286;2023-05-13T13:53:48;4.17;;;3.90;;
13816;SDS011;6979;52.116;5.286;2023-05-13T13:56:15;4.57;;;4.27;;
13816;SDS011;6979;52.116;5.286;2023-05-13T13:58:42;5.00;;;4.70;;
13816;SDS011;6979;52.116;5.286;2023-05-13T14:01:10;4.20;;;3.90;;
13816;SDS011;6979;52.116;5.286;2023-05-13T14:03:37;4.93;;;4.53;;
13816;SDS011;6979;52.116;5.286;2023-05-13T14:06:04;4.80;;;4.30;;
13816;SDS011;6979;52.116;5.286;2023-05-13T14:08:31;4.67;;;4.27;;
13816;SDS011;6979;52.116;5.286;2023-05-13T14:10:58;4.37;;;3.97;;
13816;SDS011;6979;52.116;5.286;2023-05-13T14:13:24;3.90;;;3.60;;
13816;SDS011;6979;52.116;5.286;2023-05-13T14:15:51;4.53;;;4.13;;
13816;SDS011;6979;52.116;5.286;2023-05-13T14:18:19;4.43;;;4.17;;
13816;SDS011;6979;52.116;5.286;2023-05-13T14:20:46;4.10;;;3.80;;
13816;SDS011;6979;52.116;5.286;2023-05-13T14:23:14;3.97;;;3.33;;
13816;SDS011;6979;52.116;5.286;2023-05-13T14:25:41;4.07;;;3.77;;
13816;SDS011;6979;52.116;5.286;2023-05-13T14:28:08;4.10;;;3.83;;
13816;SDS011;6979;52.116;5.286;2023-05-13T14:30:36;3.97;;;3.70;;
13816;SDS011;6979;52.116;5.286;2023-05-13T14:33:06;4.30;;;3.90;;
13816;SDS011;6979;52.116;5.286;2023-05-13T14:35:34;5.20;;;3.33;;
13816;SDS011;6979;52.116;5.286;2023-05-13T14:38:01;4.20;;;3.67;;
13816;SDS011;6979;52.116;5.286;2023-05-13T14:40:28;4.10;;;3.90;;
13816;SDS011;6979;52.116;5.286;2023-05-13T14:43:04;4.20;;;3.90;;
13816;SDS011;6979;52.116;5.286;2023-05-13T14:45:30;4.00;;;3.67;;
13816;SDS011;6979;52.116;5.286;2023-05-13T14:47:57;4.57;;;4.27;;
13816;SDS011;6979;52.116;5.286;2023-05-13T14:50:24;4.27;;;4.07;;
13816;SDS011;6979;52.116;5.286;2023-05-13T14:52:52;4.20;;;3.93;;
13816;SDS011;6979;52.116;5.286;2023-05-13T14:55:19;4.20;;;4.00;;
13816;SDS011;6979;52.116;5.286;2023-05-13T14:57:46;4.33;;;4.13;;
13816;SDS011;6979;52.116;5.286;2023-05-13T15:00:13;4.87;;;4.47;;
13816;SDS011;6979;52.116;5.286;2023-05-13T15:02:41;5.83;;;5.33;;
13816;SDS011;6979;52.116;5.286;2023-05-13T15:05:08;4.97;;;4.53;;
13816;SDS011;6979;52.116;5.286;2023-05-13T15:07:35;6.63;;;6.10;;